createdAt,value
2017-12-03T00:00:23.881Z,37.15
2017-12-03T00:02:52.096Z,36.65
2017-12-03T00:05:19.304Z,33.67
2017-12-03T00:07:46.327Z,37.85
2017-12-03T00:10:13.261Z,36.35
2017-12-03T00:12:40.395Z,42.15
2017-12-03T00:15:07.403Z,35.20
2017-12-03T00:17:34.508Z,36.35
2017-12-03T00:20:02.295Z,32.20
2017-12-03T00:22:29.986Z,35.60
2017-12-03T00:24:57.235Z,35.05
2017-12-03T00:27:24.175Z,38.83
2017-12-03T00:29:51.396Z,35.55
2017-12-03T00:32:18.544Z,38.03
2017-12-03T00:34:45.670Z,38.65
2017-12-03T00:37:12.554Z,42.53
2017-12-03T00:39:40.362Z,35.40
2017-12-03T00:42:07.351Z,39.65
2017-12-03T00:44:35.272Z,35.05
2017-12-03T00:47:02.806Z,33.53
2017-12-03T00:49:29.900Z,32.08
2017-12-03T00:51:56.960Z,31.73
2017-12-03T00:54:24.675Z,37.47
2017-12-03T00:56:51.902Z,35.00
2017-12-03T00:59:19.056Z,36.78
2017-12-03T01:01:46.758Z,33.72
2017-12-03T01:04:13.740Z,33.72
2017-12-03T01:06:40.652Z,38.10
2017-12-03T01:09:07.692Z,38.22
2017-12-03T01:11:34.658Z,39.30
2017-12-03T01:14:01.557Z,39.15
2017-12-03T01:16:30.129Z,35.35
2017-12-03T01:18:57.348Z,35.45
2017-12-03T01:21:24.563Z,38.05
2017-12-03T01:23:51.992Z,39.30
2017-12-03T01:26:19.985Z,36.13
2017-12-03T01:28:47.653Z,37.58
2017-12-03T01:31:14.942Z,38.63
2017-12-03T01:33:42.343Z,33.72
2017-12-03T01:36:09.719Z,37.92
2017-12-03T01:38:38.113Z,35.72
2017-12-03T01:41:05.826Z,34.63
2017-12-03T01:43:33.623Z,37.40
2017-12-03T01:46:01.633Z,36.40
2017-12-03T01:48:28.934Z,32.72
2017-12-03T01:50:56.043Z,36.05
2017-12-03T01:53:23.132Z,33.35
2017-12-03T01:55:50.011Z,36.47
2017-12-03T01:58:16.952Z,33.03
2017-12-03T02:00:43.967Z,30.33
2017-12-03T02:03:11.108Z,32.30
2017-12-03T02:05:38.250Z,35.78
2017-12-03T02:08:06.280Z,51.70
2017-12-03T02:10:34.332Z,33.30
2017-12-03T02:13:02.024Z,35.95
2017-12-03T02:15:30.410Z,35.50
2017-12-03T02:17:58.219Z,36.17
2017-12-03T02:20:26.775Z,37.67
2017-12-03T02:22:54.618Z,37.33
2017-12-03T02:25:23.012Z,32.85
2017-12-03T02:27:50.593Z,33.10
2017-12-03T02:30:18.641Z,29.63
2017-12-03T02:32:46.522Z,33.72
2017-12-03T02:35:15.184Z,29.20
2017-12-03T02:37:42.399Z,29.80
2017-12-03T02:40:09.677Z,31.73
2017-12-03T02:42:37.999Z,31.62
2017-12-03T02:45:06.626Z,31.27
2017-12-03T02:47:33.565Z,26.30
2017-12-03T02:50:00.460Z,29.23
2017-12-03T02:52:28.964Z,26.48
2017-12-03T02:54:55.836Z,26.45
2017-12-03T02:57:25.026Z,28.55
2017-12-03T02:59:51.987Z,27.80
2017-12-03T03:02:21.059Z,24.15
2017-12-03T03:04:47.988Z,27.05
2017-12-03T03:07:16.884Z,25.17
2017-12-03T03:09:43.777Z,26.17
2017-12-03T03:12:11.767Z,26.33
2017-12-03T03:14:41.374Z,24.33
2017-12-03T03:17:12.722Z,24.52
2017-12-03T03:19:41.991Z,24.05
2017-12-03T03:22:11.404Z,27.30
2017-12-03T03:24:41.775Z,24.35
2017-12-03T03:27:08.668Z,24.40
2017-12-03T03:29:38.487Z,25.85
2017-12-03T03:32:05.460Z,23.77
2017-12-03T03:34:32.432Z,26.33
2017-12-03T03:36:59.431Z,19.67
2017-12-03T03:39:26.493Z,25.90
2017-12-03T03:41:53.396Z,26.37
2017-12-03T03:44:20.381Z,25.50
2017-12-03T03:46:48.132Z,24.08
2017-12-03T03:49:15.028Z,24.20
2017-12-03T03:51:42.028Z,22.30
2017-12-03T03:54:08.923Z,22.50
2017-12-03T03:56:35.911Z,23.33
2017-12-03T03:59:02.886Z,19.83
2017-12-03T04:01:30.622Z,20.58
2017-12-03T04:03:57.648Z,22.27
2017-12-03T04:06:24.592Z,23.62
2017-12-03T04:08:51.531Z,25.98
2017-12-03T04:11:18.497Z,21.92
2017-12-03T04:13:49.305Z,18.50
2017-12-03T04:16:17.251Z,26.37
2017-12-03T04:18:44.220Z,22.80
2017-12-03T04:21:11.107Z,23.30
2017-12-03T04:23:38.115Z,22.60
2017-12-03T04:26:04.990Z,20.33
2017-12-03T04:28:31.864Z,22.45
2017-12-03T04:30:59.560Z,21.85
2017-12-03T04:33:26.464Z,24.08
2017-12-03T04:35:53.420Z,20.00
2017-12-03T04:38:21.220Z,21.27
2017-12-03T04:40:48.187Z,20.02
2017-12-03T04:43:15.232Z,20.85
2017-12-03T04:45:42.263Z,22.58
2017-12-03T04:48:09.333Z,24.55
2017-12-03T04:50:36.292Z,22.20
2017-12-03T04:53:03.263Z,20.98
2017-12-03T04:55:31.030Z,27.85
2017-12-03T04:57:58.867Z,20.25
2017-12-03T05:00:25.813Z,20.50
2017-12-03T05:02:52.921Z,22.05
2017-12-03T05:05:19.964Z,21.98
2017-12-03T05:07:46.856Z,23.30
2017-12-03T05:10:13.910Z,21.67
2017-12-03T05:12:40.851Z,20.73
2017-12-03T05:15:07.884Z,25.80
2017-12-03T05:17:34.928Z,21.77
2017-12-03T05:20:01.804Z,21.77
2017-12-03T05:22:28.873Z,24.23
2017-12-03T05:24:55.839Z,21.45
2017-12-03T05:27:38.331Z,26.85
2017-12-03T05:30:06.119Z,18.00
2017-12-03T05:32:33.139Z,22.08
2017-12-03T05:35:00.230Z,20.33
2017-12-03T05:37:27.231Z,21.23
2017-12-03T05:39:54.181Z,17.17
2017-12-03T05:42:21.196Z,19.08
2017-12-03T05:44:48.146Z,24.20
2017-12-03T05:47:15.097Z,18.52
2017-12-03T05:49:42.745Z,22.23
2017-12-03T05:52:09.823Z,20.27
2017-12-03T05:54:38.139Z,20.37
2017-12-03T05:57:05.090Z,20.10
2017-12-03T05:59:33.483Z,20.10
2017-12-03T06:02:00.424Z,16.90
2017-12-03T06:04:28.676Z,18.73
2017-12-03T06:06:57.865Z,17.42
2017-12-03T06:09:24.851Z,15.90
2017-12-03T06:11:53.298Z,17.10
2017-12-03T06:14:22.437Z,18.95
2017-12-03T06:16:49.550Z,17.50
2017-12-03T06:19:18.252Z,14.85
2017-12-03T06:21:48.272Z,17.40
2017-12-03T06:24:16.031Z,19.58
2017-12-03T06:26:43.799Z,15.55
2017-12-03T06:29:11.489Z,15.27
2017-12-03T06:31:41.982Z,18.20
2017-12-03T06:34:09.757Z,18.25
2017-12-03T06:36:37.497Z,17.27
2017-12-03T06:39:04.517Z,16.10
2017-12-03T06:41:33.700Z,17.15
2017-12-03T06:44:01.385Z,15.93
2017-12-03T06:46:28.392Z,16.77
2017-12-03T06:48:55.390Z,15.73
2017-12-03T06:51:28.712Z,14.25
2017-12-03T06:53:56.984Z,15.02
2017-12-03T06:56:27.714Z,15.43
2017-12-03T06:59:01.765Z,15.02
2017-12-03T07:01:32.654Z,15.38
2017-12-03T07:04:02.840Z,17.05
2017-12-03T07:06:34.709Z,16.83
2017-12-03T07:09:02.281Z,16.23
2017-12-03T07:11:29.255Z,16.62
2017-12-03T07:13:56.291Z,18.95
2017-12-03T07:16:23.263Z,17.75
2017-12-03T07:18:55.013Z,19.98
2017-12-03T07:21:27.316Z,19.02
2017-12-03T07:23:59.815Z,17.98
2017-12-03T07:26:34.633Z,20.20
2017-12-03T07:29:05.734Z,19.20
2017-12-03T07:31:37.493Z,19.65
2017-12-03T07:34:08.157Z,20.25
2017-12-03T07:36:37.380Z,20.62
2017-12-03T07:39:09.391Z,20.37
2017-12-03T07:41:40.984Z,19.60
2017-12-03T07:44:11.980Z,23.15
2017-12-03T07:46:42.731Z,22.70
2017-12-03T07:49:13.925Z,26.02
2017-12-03T07:51:45.859Z,22.85
2017-12-03T07:54:16.231Z,25.88
2017-12-03T07:56:49.390Z,26.50
2017-12-03T07:59:19.368Z,25.62
2017-12-03T08:01:47.152Z,23.83
2017-12-03T08:04:23.153Z,24.50
2017-12-03T08:06:52.271Z,26.35
2017-12-03T08:09:25.922Z,25.67
2017-12-03T08:12:01.160Z,23.38
2017-12-03T08:14:34.960Z,27.25
2017-12-03T08:17:11.936Z,24.75
2017-12-03T08:19:46.764Z,23.92
2017-12-03T08:22:14.354Z,28.50
2017-12-03T08:24:45.171Z,24.90
2017-12-03T08:27:25.686Z,27.65
2017-12-03T08:29:55.518Z,28.73
2017-12-03T08:32:23.734Z,26.62
2017-12-03T08:34:53.075Z,24.98
2017-12-03T08:37:20.083Z,25.50
2017-12-03T08:39:48.380Z,24.80
2017-12-03T08:42:24.278Z,29.17
2017-12-03T08:44:53.209Z,26.35
2017-12-03T08:47:23.759Z,26.73
2017-12-03T08:49:50.704Z,29.20
2017-12-03T08:52:22.940Z,31.30
2017-12-03T08:54:54.077Z,29.85
2017-12-03T08:57:22.106Z,26.85
2017-12-03T08:59:49.079Z,28.52
2017-12-03T09:02:16.554Z,27.33
2017-12-03T09:04:43.513Z,28.20
2017-12-03T09:07:10.627Z,25.17
2017-12-03T09:09:38.547Z,27.60
2017-12-03T09:12:07.340Z,28.40
2017-12-03T09:14:35.863Z,33.08
2017-12-03T09:17:03.935Z,28.52
2017-12-03T09:19:31.545Z,33.55
2017-12-03T09:21:59.968Z,26.90
2017-12-03T09:24:28.724Z,28.92
2017-12-03T09:26:56.576Z,30.60
2017-12-03T09:29:23.563Z,27.55
2017-12-03T09:31:51.998Z,30.73
2017-12-03T09:34:23.673Z,29.37
2017-12-03T09:36:50.745Z,27.58
2017-12-03T09:39:19.572Z,28.35
2017-12-03T09:41:46.549Z,29.95
2017-12-03T09:44:22.997Z,32.10
2017-12-03T09:46:50.057Z,26.85
2017-12-03T09:49:20.894Z,35.63
2017-12-03T09:51:49.369Z,32.55
2017-12-03T09:54:16.436Z,26.27
2017-12-03T09:56:44.741Z,26.65
2017-12-03T09:59:12.236Z,28.92
2017-12-03T10:01:41.028Z,27.30
2017-12-03T10:04:08.074Z,29.80
2017-12-03T10:06:35.035Z,29.80
2017-12-03T10:09:02.240Z,32.10
2017-12-03T10:11:30.372Z,31.15
2017-12-03T10:13:58.856Z,34.78
2017-12-03T10:16:26.732Z,27.83
2017-12-03T10:18:54.188Z,27.65
2017-12-03T10:21:24.165Z,26.77
2017-12-03T10:23:53.705Z,25.25
2017-12-03T10:26:26.171Z,27.75
2017-12-03T10:28:56.339Z,23.92
2017-12-03T10:31:23.350Z,26.17
2017-12-03T10:33:52.276Z,28.90
2017-12-03T10:36:20.072Z,25.00
2017-12-03T10:38:49.368Z,23.23
2017-12-03T10:41:16.311Z,27.35
2017-12-03T10:43:43.280Z,26.90
2017-12-03T10:46:10.245Z,24.80
2017-12-03T10:48:37.163Z,24.95
2017-12-03T10:51:06.477Z,24.33
2017-12-03T10:53:33.357Z,25.48
2017-12-03T10:56:00.313Z,23.40
2017-12-03T10:58:27.362Z,23.27
2017-12-03T11:00:54.694Z,21.85
2017-12-03T11:03:24.039Z,24.33
2017-12-03T11:05:51.028Z,25.60
2017-12-03T11:08:18.161Z,21.90
2017-12-03T11:10:45.450Z,24.37
2017-12-03T11:13:13.594Z,23.42
2017-12-03T11:15:40.671Z,21.17
2017-12-03T11:18:07.971Z,22.23
2017-12-03T11:20:47.182Z,20.92
2017-12-03T11:23:21.288Z,21.77
2017-12-03T11:25:55.025Z,22.98
2017-12-03T11:28:24.082Z,22.67
2017-12-03T11:30:52.028Z,22.48
2017-12-03T11:33:19.534Z,26.12
2017-12-03T11:35:47.148Z,22.90
2017-12-03T11:38:20.160Z,19.98
2017-12-03T11:40:49.823Z,22.95
2017-12-03T11:46:03.731Z,24.60
2017-12-03T11:48:32.334Z,22.62
2017-12-03T11:51:08.037Z,23.42
2017-12-03T11:53:38.503Z,24.27
2017-12-03T11:56:11.201Z,22.05
2017-12-03T11:58:47.359Z,27.87
2017-12-03T12:01:19.608Z,26.55
2017-12-03T12:03:55.594Z,24.90
2017-12-03T12:06:27.623Z,26.37
2017-12-03T12:09:02.976Z,22.70
2017-12-03T12:11:35.967Z,24.67
2017-12-03T12:14:12.584Z,24.08
2017-12-03T12:19:31.300Z,24.37
2017-12-03T12:22:11.633Z,21.65
2017-12-03T12:24:51.470Z,23.62
2017-12-03T12:30:05.288Z,21.02
2017-12-03T12:35:29.446Z,23.70
2017-12-03T12:38:09.811Z,24.52
2017-12-03T12:40:50.329Z,23.83
2017-12-03T12:43:42.840Z,26.42
2017-12-03T12:46:23.618Z,26.77
2017-12-03T12:48:51.806Z,21.92
2017-12-03T12:51:21.979Z,22.85
2017-12-03T12:53:49.853Z,22.83
2017-12-03T12:56:18.035Z,23.30
2017-12-03T12:58:45.806Z,26.77
2017-12-03T13:01:13.822Z,21.95
2017-12-03T13:03:41.646Z,24.65
2017-12-03T13:06:11.293Z,25.55
2017-12-03T13:08:41.461Z,21.10
2017-12-03T13:11:09.269Z,22.85
2017-12-03T13:13:38.913Z,24.00
2017-12-03T13:16:08.957Z,24.77
2017-12-03T13:18:40.041Z,22.92
2017-12-03T13:21:07.560Z,24.77
2017-12-03T13:23:34.478Z,24.65
2017-12-03T13:26:01.440Z,20.62
2017-12-03T13:28:28.399Z,25.92
2017-12-03T13:30:55.412Z,26.98
2017-12-03T13:33:22.364Z,24.75
2017-12-03T13:35:49.267Z,21.33
2017-12-03T13:38:16.223Z,25.60
2017-12-03T13:40:43.192Z,28.30
2017-12-03T13:43:10.817Z,24.12
2017-12-03T13:45:37.839Z,25.23
2017-12-03T13:48:04.808Z,25.10
2017-12-03T13:50:31.689Z,27.13
2017-12-03T13:52:58.634Z,22.73
2017-12-03T13:55:25.515Z,27.52
2017-12-03T13:57:52.407Z,23.35
2017-12-03T14:00:19.381Z,24.50
2017-12-03T14:02:47.023Z,24.05
2017-12-03T14:05:13.919Z,27.50
2017-12-03T14:07:40.933Z,30.92
2017-12-03T14:10:07.935Z,28.92
2017-12-03T14:12:34.940Z,25.17
2017-12-03T14:15:01.893Z,23.50
2017-12-03T14:17:29.673Z,21.90
2017-12-03T14:20:00.348Z,26.75
2017-12-03T14:22:33.963Z,22.85
2017-12-03T14:25:07.419Z,24.00
2017-12-03T14:27:42.590Z,25.73
2017-12-03T14:30:17.935Z,27.83
2017-12-03T14:32:49.566Z,24.20
2017-12-03T14:35:23.102Z,22.58
2017-12-03T14:38:01.788Z,27.30
2017-12-03T14:40:36.378Z,22.00
2017-12-03T14:43:07.197Z,26.08
2017-12-03T14:45:38.647Z,23.92
2017-12-03T14:48:16.840Z,26.55
2017-12-03T14:50:50.380Z,26.27
2017-12-03T14:53:22.660Z,25.17
2017-12-03T14:55:51.326Z,29.95
2017-12-03T14:58:18.309Z,24.50
2017-12-03T15:00:47.963Z,29.25
2017-12-03T15:03:23.916Z,27.55
2017-12-03T15:05:54.035Z,26.98
2017-12-03T15:22:58.876Z,26.87
2017-12-03T15:31:25.081Z,32.92
2017-12-03T15:34:13.769Z,27.45
2017-12-03T15:39:46.462Z,29.45
2017-12-03T15:42:27.021Z,29.67
2017-12-03T15:44:54.714Z,33.25
2017-12-03T15:47:21.896Z,25.83
2017-12-03T15:49:48.939Z,32.00
2017-12-03T15:52:20.867Z,31.52
2017-12-03T15:54:47.927Z,30.02
2017-12-03T15:57:18.360Z,27.58
2017-12-03T15:59:45.475Z,27.50
2017-12-03T16:02:12.565Z,36.70
2017-12-03T16:04:39.964Z,27.40
2017-12-03T16:07:07.009Z,25.90
2017-12-03T16:09:33.996Z,29.30
2017-12-03T16:12:00.948Z,30.30
2017-12-03T16:14:28.020Z,32.45
2017-12-03T16:17:04.664Z,32.92
2017-12-03T16:19:40.718Z,33.17
2017-12-03T16:22:11.758Z,30.50
2017-12-03T16:24:44.504Z,27.02
2017-12-03T16:27:12.400Z,27.87
2017-12-03T16:29:39.376Z,31.37
2017-12-03T16:32:11.477Z,32.83
2017-12-03T16:34:38.663Z,29.77
2017-12-03T16:37:11.257Z,34.75
2017-12-03T16:39:38.444Z,34.40
2017-12-03T16:42:05.416Z,27.08
2017-12-03T16:44:32.399Z,31.08
2017-12-03T16:47:00.025Z,26.70
2017-12-03T16:49:27.011Z,28.85
2017-12-03T16:51:54.703Z,35.47
2017-12-03T16:54:21.713Z,29.80
2017-12-03T16:56:48.872Z,27.20
2017-12-03T16:59:16.861Z,32.05
2017-12-03T17:01:44.007Z,27.02
2017-12-03T17:04:11.359Z,29.95
2017-12-03T17:06:38.396Z,29.45
2017-12-03T17:09:06.438Z,28.45
2017-12-03T17:11:48.236Z,32.25
2017-12-03T17:14:18.491Z,32.92
2017-12-03T17:16:46.447Z,31.98
2017-12-03T17:19:13.805Z,35.45
2017-12-03T17:21:40.899Z,31.52
2017-12-03T17:24:08.417Z,28.30
2017-12-03T17:26:35.481Z,30.35
2017-12-03T17:29:16.349Z,27.30
2017-12-03T17:31:56.664Z,33.50
2017-12-03T17:34:32.287Z,30.25
2017-12-03T17:37:10.333Z,28.75
2017-12-03T17:39:51.908Z,27.70
2017-12-03T17:42:29.926Z,32.50
2017-12-03T17:45:12.676Z,27.67
2017-12-03T17:47:53.556Z,33.78
2017-12-03T17:50:28.325Z,29.63
2017-12-03T17:52:55.220Z,30.10
2017-12-03T17:55:22.722Z,33.30
2017-12-03T17:57:49.644Z,29.80
2017-12-03T18:00:16.524Z,29.83
2017-12-03T18:02:43.500Z,31.02
2017-12-03T18:05:11.024Z,33.10
2017-12-03T18:07:38.630Z,33.58
2017-12-03T18:10:05.597Z,37.33
2017-12-03T18:12:32.709Z,35.75
2017-12-03T18:14:59.925Z,31.87
2017-12-03T18:17:26.937Z,33.38
2017-12-03T18:19:55.165Z,31.55
2017-12-03T18:22:22.756Z,33.08
2017-12-03T18:24:49.812Z,31.87
2017-12-03T18:27:16.823Z,34.13
2017-12-03T18:29:44.116Z,33.10
2017-12-03T18:32:11.860Z,32.65
2017-12-03T18:34:38.972Z,31.87
2017-12-03T18:37:06.600Z,34.58
2017-12-03T18:39:34.613Z,33.28
2017-12-03T18:42:02.065Z,27.05
2017-12-03T18:44:29.183Z,35.15
2017-12-03T18:46:56.219Z,29.35
2017-12-03T18:49:23.243Z,28.83
2017-12-03T18:51:50.248Z,35.58
2017-12-03T18:54:18.080Z,34.03
2017-12-03T18:56:45.987Z,31.80
2017-12-03T18:59:13.172Z,33.65
2017-12-03T19:01:40.240Z,30.73
2017-12-03T19:04:07.321Z,33.70
2017-12-03T19:06:35.108Z,32.72
2017-12-03T19:09:02.072Z,36.28
2017-12-03T19:11:30.904Z,38.83
2017-12-03T19:13:58.304Z,33.40
2017-12-03T19:16:25.184Z,38.25
2017-12-03T19:18:52.263Z,34.35
2017-12-03T19:21:19.409Z,34.90
2017-12-03T19:23:46.363Z,34.90
2017-12-03T19:26:13.337Z,32.00
2017-12-03T19:28:40.215Z,32.00
2017-12-03T19:31:07.185Z,34.53
2017-12-03T19:33:34.131Z,32.22
2017-12-03T19:36:01.033Z,33.67
2017-12-03T19:38:37.727Z,30.37
2017-12-03T19:41:04.657Z,34.08
2017-12-03T19:43:45.948Z,36.53
2017-12-03T19:46:13.764Z,37.10
2017-12-03T19:48:42.001Z,37.08
2017-12-03T19:51:08.988Z,35.67
2017-12-03T19:53:50.775Z,31.55
2017-12-03T19:56:30.998Z,38.28
2017-12-03T19:58:58.437Z,39.28
2017-12-03T20:01:25.391Z,32.35
2017-12-03T20:03:53.552Z,34.72
2017-12-03T20:06:22.764Z,37.65
2017-12-03T20:08:59.760Z,38.30
2017-12-03T20:11:28.180Z,38.38
2017-12-03T20:14:06.170Z,33.40
2017-12-03T20:16:34.754Z,35.38
2017-12-03T20:21:50.977Z,38.65
2017-12-03T20:24:19.170Z,35.28
2017-12-03T20:26:46.805Z,37.25
2017-12-03T20:29:13.898Z,37.47
2017-12-03T20:31:40.977Z,39.75
2017-12-03T20:34:08.176Z,40.47
2017-12-03T20:36:39.863Z,39.25
2017-12-03T20:39:09.154Z,41.00
2017-12-03T20:41:37.340Z,34.50
2017-12-03T20:44:14.881Z,40.78
2017-12-03T20:46:42.052Z,34.55
2017-12-03T20:49:09.234Z,42.00
2017-12-03T20:51:36.292Z,39.42
2017-12-03T20:54:05.957Z,34.28
2017-12-03T20:56:35.414Z,37.90
2017-12-03T20:59:04.680Z,34.00
2017-12-03T21:01:36.117Z,36.65
2017-12-03T21:04:03.996Z,37.05
2017-12-03T21:06:32.753Z,41.08
2017-12-03T21:09:05.177Z,37.50
2017-12-03T21:11:34.110Z,34.10
2017-12-03T21:14:07.820Z,39.60
2017-12-03T21:16:40.714Z,40.55
2017-12-03T21:19:14.372Z,39.60
2017-12-03T21:21:44.353Z,36.20
2017-12-03T21:24:11.816Z,37.38
2017-12-03T21:26:40.320Z,37.97
2017-12-03T21:29:09.149Z,36.45
2017-12-03T21:31:43.370Z,44.22
2017-12-03T21:34:10.807Z,34.95
2017-12-03T21:36:47.949Z,38.65
2017-12-03T21:39:16.309Z,40.10
2017-12-03T21:41:44.243Z,36.28
2017-12-03T21:44:13.289Z,36.72
2017-12-03T21:46:41.982Z,37.40
2017-12-03T21:49:11.277Z,37.58
2017-12-03T21:51:39.657Z,39.50
2017-12-03T21:54:09.464Z,37.50
2017-12-03T21:56:38.164Z,36.47
2017-12-03T21:59:07.418Z,38.88
2017-12-03T22:01:46.527Z,45.70
2017-12-03T22:04:15.621Z,42.97
2017-12-03T22:06:46.628Z,36.25
2017-12-03T22:09:14.457Z,46.95
2017-12-03T22:11:42.232Z,40.30
2017-12-03T22:14:09.174Z,37.83
2017-12-03T22:16:46.616Z,42.80
2017-12-03T22:19:14.233Z,39.08
2017-12-03T22:21:41.115Z,43.85
2017-12-03T22:24:21.962Z,34.75
2017-12-03T22:26:50.613Z,39.80
2017-12-03T22:29:17.603Z,41.95
2017-12-03T22:31:50.875Z,40.70
2017-12-03T22:34:17.991Z,35.78
2017-12-03T22:36:46.450Z,34.38
2017-12-03T22:39:14.816Z,43.33
2017-12-03T22:41:41.780Z,38.90
2017-12-03T22:44:08.736Z,37.72
2017-12-03T22:46:35.813Z,41.45
2017-12-03T22:49:02.922Z,36.03
2017-12-03T22:51:30.656Z,40.28
2017-12-03T22:53:57.618Z,36.28
2017-12-03T22:56:24.623Z,35.22
2017-12-03T22:58:51.572Z,31.15
2017-12-03T23:01:18.472Z,43.65
2017-12-03T23:03:45.411Z,37.78
2017-12-03T23:06:12.347Z,39.28
2017-12-03T23:08:39.263Z,34.97
2017-12-03T23:11:06.267Z,35.33
2017-12-03T23:13:33.904Z,32.90
2017-12-03T23:16:00.884Z,36.95
2017-12-03T23:18:28.607Z,38.17
2017-12-03T23:20:55.518Z,36.10
2017-12-03T23:23:22.505Z,35.47
2017-12-03T23:25:49.515Z,37.25
2017-12-03T23:28:22.705Z,37.05
2017-12-03T23:30:53.612Z,31.98
2017-12-03T23:33:28.744Z,35.95
2017-12-03T23:36:01.810Z,33.50
2017-12-03T23:38:38.923Z,41.75
2017-12-03T23:41:10.468Z,36.80
2017-12-03T23:43:42.535Z,32.10
2017-12-03T23:46:10.946Z,35.83
2017-12-03T23:48:44.657Z,42.17
2017-12-03T23:51:16.005Z,38.92
2017-12-03T23:53:42.983Z,31.95
2017-12-03T23:56:14.739Z,31.20
2017-12-03T23:58:45.709Z,33.67
